createdAt,value
2019-01-29T00:04:58.982Z,80.55
2019-01-29T00:10:01.066Z,80.35
2019-01-29T00:15:06.037Z,81.29
2019-01-29T00:20:08.416Z,83.29
2019-01-29T00:25:10.528Z,83.66
2019-01-29T00:30:12.583Z,84.05
2019-01-29T00:35:14.619Z,83.87
2019-01-29T00:40:16.743Z,84.00
2019-01-29T00:45:19.004Z,84.08
2019-01-29T00:50:21.060Z,83.76
2019-01-29T00:55:25.175Z,83.72
2019-01-29T01:00:27.157Z,84.02
2019-01-29T01:05:29.143Z,84.68
2019-01-29T01:10:31.236Z,84.86
2019-01-29T01:15:33.284Z,84.18
2019-01-29T01:20:35.316Z,82.30
2019-01-29T01:25:37.562Z,81.78
2019-01-29T01:30:39.587Z,83.06
2019-01-29T01:35:41.648Z,83.85
2019-01-29T01:40:43.652Z,84.31
2019-01-29T01:45:45.729Z,84.86
2019-01-29T01:50:47.727Z,83.70
2019-01-29T01:55:49.715Z,84.75
2019-01-29T02:00:51.776Z,85.55
2019-01-29T02:05:54.046Z,85.59
2019-01-29T02:10:56.331Z,85.42
2019-01-29T02:15:58.293Z,86.01
2019-01-29T02:21:00.308Z,86.17
2019-01-29T02:26:02.459Z,86.11
2019-01-29T02:31:04.474Z,85.91
2019-01-29T02:36:06.492Z,85.82
2019-01-29T02:41:08.498Z,85.12
2019-01-29T02:46:10.518Z,85.44
2019-01-29T02:51:12.560Z,86.08
2019-01-29T02:56:14.562Z,86.28
2019-01-29T03:01:16.547Z,86.24
2019-01-29T03:06:18.924Z,86.80
2019-01-29T03:11:20.949Z,87.87
2019-01-29T03:16:22.965Z,87.84
2019-01-29T03:21:24.951Z,88.10
2019-01-29T03:26:26.968Z,87.55
2019-01-29T03:31:29.013Z,87.71
2019-01-29T03:36:31.022Z,87.56
2019-01-29T03:41:33.122Z,87.31
2019-01-29T03:46:35.209Z,87.70
2019-01-29T03:51:37.271Z,87.30
2019-01-29T03:56:39.436Z,86.85
2019-01-29T04:01:41.438Z,87.15
2019-01-29T04:06:43.696Z,87.06
2019-01-29T04:11:45.968Z,87.53
2019-01-29T04:16:48.016Z,87.19
2019-01-29T04:21:50.069Z,88.00
2019-01-29T04:26:52.048Z,88.46
2019-01-29T04:31:54.077Z,88.43
2019-01-29T04:36:56.066Z,88.41
2019-01-29T04:41:58.135Z,88.04
2019-01-29T04:47:00.179Z,88.13
2019-01-29T04:52:02.204Z,88.70
2019-01-29T04:57:04.228Z,89.14
2019-01-29T05:02:06.239Z,88.80
2019-01-29T05:07:08.486Z,88.80
2019-01-29T05:12:12.209Z,88.21
2019-01-29T05:17:14.264Z,87.79
2019-01-29T05:22:16.277Z,87.08
2019-01-29T05:27:18.261Z,86.97
2019-01-29T05:32:20.429Z,86.66
2019-01-29T05:37:22.535Z,86.71
2019-01-29T05:42:24.549Z,86.95
2019-01-29T05:47:26.618Z,86.86
2019-01-29T05:52:28.623Z,86.42
2019-01-29T05:57:30.585Z,86.40
2019-01-29T06:02:32.919Z,85.94
2019-01-29T06:07:35.158Z,85.71
2019-01-29T06:12:37.143Z,86.25
2019-01-29T06:17:39.150Z,86.05
2019-01-29T06:22:41.174Z,85.83
2019-01-29T06:27:43.182Z,85.94
2019-01-29T06:32:45.324Z,85.63
2019-01-29T06:37:47.527Z,85.88
2019-01-29T06:42:51.135Z,85.74
2019-01-29T06:47:53.561Z,85.39
2019-01-29T06:52:56.008Z,85.32
2019-01-29T06:57:58.036Z,85.31
2019-01-29T07:03:00.788Z,85.07
2019-01-29T07:08:03.122Z,84.24
2019-01-29T07:13:05.166Z,85.39
2019-01-29T07:18:16.665Z,84.99
2019-01-29T07:23:18.710Z,84.89
2019-01-29T07:28:20.749Z,84.69
2019-01-29T07:33:23.120Z,85.42
2019-01-29T07:38:25.139Z,85.18
2019-01-29T07:43:27.168Z,85.58
2019-01-29T07:48:29.184Z,85.48
2019-01-29T07:53:31.222Z,86.02
2019-01-29T07:58:33.622Z,85.33
2019-01-29T08:03:38.225Z,85.36
2019-01-29T08:08:40.330Z,84.91
2019-01-29T08:13:42.395Z,84.29
2019-01-29T08:18:44.455Z,83.61
2019-01-29T08:23:46.631Z,83.33
2019-01-29T08:28:48.666Z,82.98
2019-01-29T08:33:50.708Z,82.94
2019-01-29T08:38:52.727Z,82.45
2019-01-29T08:43:54.704Z,82.67
2019-01-29T08:48:56.756Z,82.68
2019-01-29T08:53:58.966Z,82.19
2019-01-29T08:59:00.978Z,82.55
2019-01-29T09:04:03.284Z,82.90
2019-01-29T09:09:08.055Z,82.65
2019-01-29T09:14:10.104Z,82.29
2019-01-29T09:19:12.096Z,81.96
2019-01-29T09:24:14.078Z,81.85
2019-01-29T09:29:17.751Z,81.46
2019-01-29T09:34:20.057Z,81.00
2019-01-29T09:39:22.064Z,81.52
2019-01-29T09:44:24.107Z,81.99
2019-01-29T09:49:26.153Z,81.43
2019-01-29T09:54:28.257Z,80.37
2019-01-29T09:59:30.385Z,80.58
2019-01-29T10:04:32.413Z,80.36
2019-01-29T10:09:34.581Z,80.27
2019-01-29T10:14:36.546Z,80.31
2019-01-29T10:19:38.524Z,79.82
2019-01-29T10:24:41.317Z,80.44
2019-01-29T10:29:43.407Z,80.39
2019-01-29T10:34:45.412Z,80.28
2019-01-29T10:39:47.564Z,80.28
2019-01-29T10:44:49.571Z,79.77
2019-01-29T10:49:51.806Z,79.40
2019-01-29T10:54:53.847Z,79.37
2019-01-29T10:59:55.842Z,79.64
2019-01-29T11:04:57.887Z,79.33
2019-01-29T11:09:59.927Z,79.96
2019-01-29T11:15:01.988Z,79.92
2019-01-29T11:20:06.915Z,80.01
2019-01-29T11:25:12.735Z,79.55
2019-01-29T11:30:16.704Z,79.53
2019-01-29T11:35:18.784Z,79.37
2019-01-29T11:40:22.916Z,79.28
2019-01-29T11:45:27.264Z,79.15
2019-01-29T11:50:29.273Z,79.18
2019-01-29T11:55:31.325Z,78.69
2019-01-29T12:00:40.253Z,77.91
2019-01-29T12:05:42.545Z,78.56
2019-01-29T12:10:44.708Z,78.04
2019-01-29T12:15:46.840Z,77.58
2019-01-29T12:20:48.825Z,77.34
2019-01-29T12:25:50.842Z,76.71
2019-01-29T12:30:52.967Z,76.29
2019-01-29T12:35:54.985Z,75.98
2019-01-29T12:40:57.219Z,75.75
2019-01-29T12:45:59.216Z,75.99
2019-01-29T12:51:03.289Z,75.13
2019-01-29T12:56:05.541Z,75.50
2019-01-29T13:01:07.607Z,76.23
2019-01-29T13:06:09.648Z,76.19
2019-01-29T13:11:11.732Z,76.00
2019-01-29T13:16:13.814Z,75.44
2019-01-29T13:21:15.829Z,74.81
2019-01-29T13:26:17.853Z,73.32
2019-01-29T13:31:20.182Z,73.35
2019-01-29T13:36:22.215Z,71.40
2019-01-29T13:41:24.336Z,69.68
2019-01-29T13:46:26.388Z,70.02
2019-01-29T13:51:28.575Z,69.83
2019-01-29T13:56:38.575Z,69.25
2019-01-29T14:01:34.634Z,69.78
2019-01-29T14:06:36.704Z,68.08
2019-01-29T14:11:39.330Z,68.80
2019-01-29T14:16:41.354Z,69.35
2019-01-29T14:21:43.371Z,70.12
2019-01-29T14:26:47.787Z,70.00
2019-01-29T14:31:51.401Z,70.74
2019-01-29T14:36:53.583Z,71.80
2019-01-29T14:41:55.601Z,72.53
2019-01-29T14:46:57.614Z,72.47
2019-01-29T14:51:59.719Z,73.18
2019-01-29T14:57:01.708Z,73.48
2019-01-29T15:02:03.866Z,73.16
2019-01-29T15:07:05.922Z,73.32
2019-01-29T15:12:07.907Z,73.93
2019-01-29T15:17:47.661Z,74.09
2019-01-29T15:22:49.824Z,73.65
2019-01-29T15:27:52.061Z,73.08
2019-01-29T15:32:54.084Z,72.94
2019-01-29T15:37:56.499Z,72.06
2019-01-29T15:42:58.620Z,72.38
2019-01-29T15:48:00.671Z,72.00
2019-01-29T15:53:04.265Z,70.83
2019-01-29T15:58:07.692Z,70.52
2019-01-29T16:03:09.678Z,70.45
2019-01-29T16:08:11.974Z,70.95
2019-01-29T16:13:14.122Z,71.15
2019-01-29T16:18:16.149Z,70.45
2019-01-29T16:23:18.439Z,71.29
2019-01-29T16:28:20.508Z,72.25
2019-01-29T16:33:22.507Z,73.27
2019-01-29T16:38:24.476Z,73.61
2019-01-29T16:43:26.742Z,73.91
2019-01-29T16:48:28.776Z,74.29
2019-01-29T16:53:31.064Z,73.73
2019-01-29T16:58:33.112Z,74.09
2019-01-29T17:03:35.164Z,74.12
2019-01-29T17:08:37.443Z,74.33
2019-01-29T17:13:39.577Z,73.89
2019-01-29T17:18:41.569Z,74.31
2019-01-29T17:23:43.632Z,73.71
2019-01-29T17:28:45.764Z,72.83
2019-01-29T17:33:47.824Z,72.94
2019-01-29T17:38:49.794Z,72.72
2019-01-29T17:43:52.021Z,72.00
2019-01-29T17:48:54.067Z,71.96
2019-01-29T17:53:56.167Z,73.03
2019-01-29T17:58:58.323Z,72.86
2019-01-29T18:04:00.379Z,73.34
2019-01-29T18:09:05.441Z,73.27
2019-01-29T18:14:07.501Z,73.57
2019-01-29T18:19:09.502Z,74.18
2019-01-29T18:24:11.494Z,75.24
2019-01-29T18:29:13.553Z,75.89
2019-01-29T18:34:15.552Z,76.45
2019-01-29T18:39:17.532Z,77.05
2019-01-29T18:44:19.598Z,77.83
2019-01-29T18:49:21.639Z,78.47
2019-01-29T18:54:23.620Z,79.49
2019-01-29T18:59:25.670Z,79.96
2019-01-29T19:04:27.711Z,80.58
2019-01-29T19:09:29.792Z,80.96
2019-01-29T19:14:31.830Z,81.58
2019-01-29T19:19:33.842Z,81.48
2019-01-29T19:24:35.893Z,81.79
2019-01-29T19:29:37.913Z,81.67
2019-01-29T19:34:40.751Z,82.37
2019-01-29T19:39:42.769Z,82.42
2019-01-29T19:44:44.795Z,82.93
2019-01-29T19:49:47.005Z,83.33
2019-01-29T19:54:49.062Z,83.29
2019-01-29T19:59:51.149Z,83.67
2019-01-29T20:04:53.138Z,83.63
2019-01-29T20:09:55.531Z,84.65
2019-01-29T20:14:57.745Z,84.50
2019-01-29T20:20:00.301Z,84.52
2019-01-29T20:25:04.271Z,85.02
2019-01-29T20:30:10.759Z,85.32
2019-01-29T20:35:12.779Z,85.45
2019-01-29T20:40:16.335Z,85.52
2019-01-29T20:45:18.851Z,85.52
2019-01-29T20:50:24.905Z,85.73
2019-01-29T20:55:27.174Z,85.73
2019-01-29T21:00:31.292Z,85.70
2019-01-29T21:05:33.532Z,85.63
2019-01-29T21:10:35.924Z,85.53
2019-01-29T21:15:38.843Z,85.53
2019-01-29T21:20:40.887Z,85.33
2019-01-29T21:25:42.832Z,85.92
2019-01-29T21:30:44.913Z,85.51
2019-01-29T21:35:46.897Z,85.34
2019-01-29T21:40:49.089Z,85.62
2019-01-29T21:45:51.084Z,85.50
2019-01-29T21:50:53.086Z,84.94
2019-01-29T21:55:55.146Z,84.97
2019-01-29T22:00:57.182Z,85.02
2019-01-29T22:05:59.174Z,84.84
2019-01-29T22:11:01.390Z,84.88
2019-01-29T22:16:03.520Z,84.63
2019-01-29T22:21:05.511Z,84.66
2019-01-29T22:26:07.526Z,84.26
2019-01-29T22:31:09.541Z,84.14
2019-01-29T22:36:11.533Z,83.91
2019-01-29T22:41:13.568Z,83.55
2019-01-29T22:46:15.544Z,83.44
2019-01-29T22:51:17.827Z,83.20
2019-01-29T22:56:19.836Z,82.92
2019-01-29T23:01:41.425Z,82.70
2019-01-29T23:07:10.592Z,81.92
2019-01-29T23:12:12.817Z,81.87
2019-01-29T23:17:14.856Z,81.20
2019-01-29T23:22:16.914Z,80.91
2019-01-29T23:27:19.154Z,80.60
2019-01-29T23:32:21.262Z,80.98
2019-01-29T23:37:23.577Z,80.90
2019-01-29T23:42:25.642Z,80.87
2019-01-29T23:47:27.640Z,80.95
2019-01-29T23:52:29.660Z,79.98
2019-01-29T23:57:31.985Z,80.09
